createdAt,value
2023-06-15T00:00:42.781Z,97213.24
2023-06-15T00:03:33.339Z,97220.69
2023-06-15T00:06:03.435Z,97221.52
2023-06-15T00:08:32.934Z,97218.07
2023-06-15T00:11:03.474Z,97215.05
2023-06-15T00:13:35.880Z,97214.94
2023-06-15T00:16:07.834Z,97215.57
2023-06-15T00:18:40.236Z,97215.41
2023-06-15T00:21:09.943Z,97212.92
2023-06-15T00:23:39.805Z,97205.79
2023-06-15T00:26:09.195Z,97204.70
2023-06-15T00:28:39.518Z,97204.63
2023-06-15T00:31:08.509Z,97206.95
2023-06-15T00:33:38.540Z,97211.07
2023-06-15T00:36:13.326Z,97208.17
2023-06-15T00:38:44.275Z,97206.30
2023-06-15T00:41:16.638Z,97205.47
2023-06-15T00:43:47.677Z,97201.58
2023-06-15T00:46:19.629Z,97204.01
2023-06-15T00:48:49.224Z,97206.98
2023-06-15T00:51:19.692Z,97204.83
2023-06-15T00:53:50.237Z,97206.94
2023-06-15T00:56:22.288Z,97207.02
2023-06-15T00:58:53.083Z,97205.97
2023-06-15T01:01:22.390Z,97201.52
2023-06-15T01:03:57.513Z,97195.44
2023-06-15T01:06:35.060Z,97197.75
2023-06-15T01:09:08.109Z,97202.66
2023-06-15T01:11:42.196Z,97203.20
2023-06-15T01:14:12.210Z,97199.05
2023-06-15T01:16:53.702Z,97202.10
2023-06-15T01:19:33.936Z,97198.92
2023-06-15T01:22:10.341Z,97197.07
2023-06-15T01:24:43.817Z,97200.05
2023-06-15T01:27:16.236Z,97193.20
2023-06-15T01:29:47.815Z,97194.05
2023-06-15T01:32:22.952Z,97193.04
2023-06-15T01:35:01.230Z,97195.36
2023-06-15T01:37:33.927Z,97199.64
2023-06-15T01:40:05.537Z,97200.40
2023-06-15T01:42:40.172Z,97201.09
2023-06-15T01:45:12.312Z,97200.70
2023-06-15T01:47:42.446Z,97197.34
2023-06-15T01:50:16.166Z,97198.73
2023-06-15T01:52:51.155Z,97198.30
2023-06-15T01:55:22.077Z,97192.86
2023-06-15T01:57:55.489Z,97189.88
2023-06-15T02:00:28.291Z,97192.54
2023-06-15T02:03:03.773Z,97190.60
2023-06-15T02:05:41.143Z,97191.07
2023-06-15T02:08:16.198Z,97189.97
2023-06-15T02:10:49.711Z,97189.00
2023-06-15T02:13:21.655Z,97186.71
2023-06-15T02:15:53.754Z,97190.20
2023-06-15T02:18:25.173Z,97191.83
2023-06-15T02:20:56.492Z,97194.33
2023-06-15T02:23:28.049Z,97195.95
2023-06-15T02:25:59.710Z,97200.33
2023-06-15T02:28:32.917Z,97200.35
2023-06-15T02:31:05.084Z,97205.79
2023-06-15T02:33:36.266Z,97209.29
2023-06-15T02:36:08.934Z,97210.94
2023-06-15T02:38:40.674Z,97205.83
2023-06-15T02:41:11.587Z,97198.92
2023-06-15T02:43:43.186Z,97201.44
2023-06-15T02:46:15.197Z,97201.42
2023-06-15T02:48:46.425Z,97198.89
2023-06-15T02:51:16.500Z,97197.64
2023-06-15T02:53:46.830Z,97202.11
2023-06-15T02:56:22.675Z,97199.37
2023-06-15T02:58:56.145Z,97200.63
2023-06-15T03:01:44.661Z,97204.14
2023-06-15T03:04:16.577Z,97210.65
2023-06-15T03:06:52.868Z,97216.59
2023-06-15T03:09:29.321Z,97217.59
2023-06-15T03:12:00.173Z,97216.02
2023-06-15T03:14:35.116Z,97219.64
2023-06-15T03:17:06.073Z,97215.46
2023-06-15T03:19:35.664Z,97215.80
2023-06-15T03:22:05.433Z,97212.29
2023-06-15T03:24:34.426Z,97207.52
2023-06-15T03:27:04.875Z,97209.04
2023-06-15T03:29:38.866Z,97210.55
2023-06-15T03:32:10.751Z,97207.25
2023-06-15T03:34:40.411Z,97205.58
2023-06-15T03:37:09.393Z,97205.16
2023-06-15T03:39:40.103Z,97204.35
2023-06-15T03:42:10.944Z,97200.13
2023-06-15T03:44:40.558Z,97199.36
2023-06-15T03:47:10.338Z,97204.43
2023-06-15T03:49:39.853Z,97207.84
2023-06-15T03:52:09.671Z,97207.60
2023-06-15T03:54:39.895Z,97213.10
2023-06-15T03:57:09.586Z,97215.83
2023-06-15T03:59:39.586Z,97214.84
2023-06-15T04:02:08.477Z,97213.10
2023-06-15T04:04:37.534Z,97217.14
2023-06-15T04:07:08.360Z,97214.36
2023-06-15T04:09:38.306Z,97214.52
2023-06-15T04:12:07.622Z,97215.77
2023-06-15T04:14:36.931Z,97212.63
2023-06-15T04:17:06.248Z,97214.66
2023-06-15T04:19:35.854Z,97219.06
2023-06-15T04:22:04.929Z,97220.38
2023-06-15T04:24:34.912Z,97217.44
2023-06-15T04:27:04.191Z,97216.52
2023-06-15T04:29:33.089Z,97211.43
2023-06-15T04:32:04.915Z,97207.36
2023-06-15T04:34:36.720Z,97209.29
2023-06-15T04:37:08.686Z,97208.55
2023-06-15T04:39:39.801Z,97209.58
2023-06-15T04:42:10.979Z,97210.65
2023-06-15T04:44:40.047Z,97214.45
2023-06-15T04:47:10.163Z,97215.35
2023-06-15T04:49:39.982Z,97218.57
2023-06-15T04:52:10.794Z,97226.96
2023-06-15T04:54:42.319Z,97227.21
2023-06-15T04:57:11.374Z,97235.70
2023-06-15T04:59:40.682Z,97234.13
2023-06-15T05:02:10.489Z,97233.39
2023-06-15T05:04:41.409Z,97233.27
2023-06-15T05:07:10.394Z,97231.81
2023-06-15T05:09:44.729Z,97232.41
2023-06-15T05:12:17.599Z,97235.63
2023-06-15T05:14:47.176Z,97233.95
2023-06-15T05:17:15.840Z,97235.41
2023-06-15T05:19:44.828Z,97229.94
2023-06-15T05:22:13.517Z,97229.30
2023-06-15T05:24:43.911Z,97231.70
2023-06-15T05:27:13.480Z,97233.42
2023-06-15T05:29:46.669Z,97233.41
2023-06-15T05:32:16.089Z,97232.14
2023-06-15T05:34:45.868Z,97234.15
2023-06-15T05:37:15.501Z,97232.18
2023-06-15T05:39:46.128Z,97238.05
2023-06-15T05:42:15.392Z,97236.86
2023-06-15T05:44:47.787Z,97235.92
2023-06-15T05:47:17.272Z,97237.48
2023-06-15T05:49:46.439Z,97241.65
2023-06-15T05:52:19.086Z,97241.67
2023-06-15T05:54:48.356Z,97241.05
2023-06-15T05:57:18.324Z,97240.35
2023-06-15T05:59:48.605Z,97240.84
2023-06-15T06:02:17.588Z,97241.24
2023-06-15T06:04:47.602Z,97239.81
2023-06-15T06:07:16.709Z,97238.24
2023-06-15T06:09:45.866Z,97242.63
2023-06-15T06:12:15.706Z,97241.20
2023-06-15T06:14:46.629Z,97242.52
2023-06-15T06:17:33.346Z,97246.06
2023-06-15T06:20:05.114Z,97247.95
2023-06-15T06:22:34.354Z,97248.00
2023-06-15T06:25:03.187Z,97250.63
2023-06-15T06:27:32.314Z,97251.06
2023-06-15T06:30:01.258Z,97253.10
2023-06-15T06:32:30.227Z,97252.08
2023-06-15T06:34:59.490Z,97249.45
2023-06-15T06:37:28.679Z,97247.23
2023-06-15T06:39:58.489Z,97246.77
2023-06-15T06:42:27.422Z,97242.95
2023-06-15T06:44:57.924Z,97247.52
2023-06-15T06:47:27.360Z,97247.83
2023-06-15T06:49:56.344Z,97251.81
2023-06-15T06:52:24.904Z,97251.84
2023-06-15T06:54:53.608Z,97252.58
2023-06-15T06:57:22.994Z,97247.54
2023-06-15T06:59:52.239Z,97246.89
2023-06-15T07:02:21.407Z,97246.48
2023-06-15T07:04:50.566Z,97248.02
2023-06-15T07:07:19.798Z,97245.69
2023-06-15T07:09:48.411Z,97244.29
2023-06-15T07:12:17.333Z,97243.20
2023-06-15T07:14:46.112Z,97244.05
2023-06-15T07:17:14.845Z,97239.87
2023-06-15T07:19:43.755Z,97234.07
2023-06-15T07:22:12.447Z,97236.45
2023-06-15T07:24:41.098Z,97237.15
2023-06-15T07:27:09.797Z,97237.46
2023-06-15T07:29:38.816Z,97236.48
2023-06-15T07:32:07.957Z,97237.45
2023-06-15T07:34:37.029Z,97233.79
2023-06-15T07:37:06.097Z,97230.00
2023-06-15T07:39:36.469Z,97232.04
2023-06-15T07:42:05.341Z,97228.02
2023-06-15T07:44:34.275Z,97225.57
2023-06-15T07:47:03.156Z,97224.84
2023-06-15T07:49:45.056Z,97221.21
2023-06-15T07:52:15.667Z,97226.67
2023-06-15T07:54:44.555Z,97223.63
2023-06-15T07:57:13.067Z,97221.73
2023-06-15T07:59:42.362Z,97220.84
2023-06-15T08:02:11.260Z,97221.86
2023-06-15T08:04:40.524Z,97219.55
2023-06-15T08:07:09.875Z,97218.36
2023-06-15T08:09:38.390Z,97217.77
2023-06-15T08:12:07.244Z,97217.70
2023-06-15T08:14:37.504Z,97216.45
2023-06-15T08:17:06.559Z,97221.99
2023-06-15T08:19:38.191Z,97217.32
2023-06-15T08:22:07.434Z,97221.68
2023-06-15T08:24:36.365Z,97225.38
2023-06-15T08:27:07.131Z,97222.88
2023-06-15T08:29:36.096Z,97225.75
2023-06-15T08:32:07.826Z,97226.60
2023-06-15T08:34:37.402Z,97228.02
2023-06-15T08:37:06.054Z,97230.34
2023-06-15T08:39:35.109Z,97230.45
2023-06-15T08:42:04.261Z,97233.20
2023-06-15T08:44:35.744Z,97235.20
2023-06-15T08:47:04.981Z,97233.40
2023-06-15T08:49:34.257Z,97231.67
2023-06-15T08:52:04.530Z,97230.65
2023-06-15T08:54:33.568Z,97231.19
2023-06-15T08:57:04.166Z,97234.15
2023-06-15T08:59:32.816Z,97229.25
2023-06-15T09:02:03.703Z,97224.83
2023-06-15T09:04:33.315Z,97222.98
2023-06-15T09:07:02.783Z,97223.24
2023-06-15T09:09:31.321Z,97224.88
2023-06-15T09:11:59.738Z,97220.27
2023-06-15T09:14:28.419Z,97219.75
2023-06-15T09:16:57.117Z,97217.77
2023-06-15T09:19:26.099Z,97218.86
2023-06-15T09:21:55.453Z,97215.40
2023-06-15T09:24:26.062Z,97221.48
2023-06-15T09:26:54.622Z,97221.45
2023-06-15T09:29:23.089Z,97222.86
2023-06-15T09:31:51.881Z,97223.73
2023-06-15T09:34:21.050Z,97228.41
2023-06-15T09:36:50.448Z,97223.21
2023-06-15T09:39:26.317Z,97225.03
2023-06-15T09:41:58.440Z,97221.95
2023-06-15T09:44:28.309Z,97220.32
2023-06-15T09:47:03.502Z,97219.42
2023-06-15T09:49:33.160Z,97218.33
2023-06-15T09:52:02.360Z,97217.02
2023-06-15T09:54:32.181Z,97217.97
2023-06-15T09:57:02.766Z,97215.52
2023-06-15T09:59:31.865Z,97212.08
2023-06-15T10:02:01.880Z,97210.98
2023-06-15T10:04:34.641Z,97210.30
2023-06-15T10:07:04.992Z,97210.95
2023-06-15T10:09:50.446Z,97209.34
2023-06-15T10:12:23.988Z,97209.43
2023-06-15T10:15:12.472Z,97207.04
2023-06-15T10:17:43.297Z,97206.52
2023-06-15T10:20:19.930Z,97203.55
2023-06-15T10:22:51.653Z,97200.86
2023-06-15T10:25:20.981Z,97198.40
2023-06-15T10:27:50.177Z,97194.64
2023-06-15T10:30:37.426Z,97189.73
2023-06-15T10:33:09.129Z,97189.06
2023-06-15T10:35:41.149Z,97184.91
2023-06-15T10:38:15.698Z,97177.84
2023-06-15T10:40:47.125Z,97177.32
2023-06-15T10:43:26.697Z,97170.95
2023-06-15T10:45:55.290Z,97170.02
2023-06-15T10:48:25.551Z,97171.00
2023-06-15T10:51:04.407Z,97166.88
2023-06-15T10:53:42.134Z,97165.23
2023-06-15T10:56:15.002Z,97167.70
2023-06-15T10:59:05.333Z,97164.27
2023-06-15T11:01:34.134Z,97163.84
2023-06-15T11:04:03.534Z,97166.05
2023-06-15T11:06:33.551Z,97164.41
2023-06-15T11:09:06.423Z,97164.28
2023-06-15T11:11:36.600Z,97163.15
2023-06-15T11:14:06.493Z,97160.55
2023-06-15T11:16:35.863Z,97155.74
2023-06-15T11:19:13.392Z,97157.81
2023-06-15T11:21:44.461Z,97156.04
2023-06-15T11:24:15.580Z,97154.98
2023-06-15T11:26:44.931Z,97156.15
2023-06-15T11:29:17.507Z,97160.35
2023-06-15T11:31:46.282Z,97159.64
2023-06-15T11:34:14.981Z,97159.88
2023-06-15T11:36:43.545Z,97159.84
2023-06-15T11:39:21.998Z,97158.73
2023-06-15T11:41:57.471Z,97155.95
2023-06-15T11:44:28.462Z,97148.88
2023-06-15T11:46:58.824Z,97152.73
2023-06-15T11:49:35.793Z,97150.33
2023-06-15T11:52:05.674Z,97150.80
2023-06-15T11:54:50.546Z,97143.38
2023-06-15T11:57:23.256Z,97144.38
2023-06-15T11:59:52.414Z,97143.08
2023-06-15T12:02:22.622Z,97145.70
2023-06-15T12:04:55.329Z,97144.16
2023-06-15T12:07:37.284Z,97143.80
2023-06-15T12:10:08.350Z,97141.50
2023-06-15T12:12:37.484Z,97141.04
2023-06-15T12:15:07.107Z,97136.11
2023-06-15T12:17:37.610Z,97135.86
2023-06-15T12:20:12.003Z,97134.65
2023-06-15T12:22:48.279Z,97132.27
2023-06-15T12:25:17.080Z,97134.17
2023-06-15T12:27:53.643Z,97131.61
2023-06-15T12:30:25.837Z,97132.89
2023-06-15T12:32:54.587Z,97133.34
2023-06-15T12:35:43.528Z,97128.53
2023-06-15T12:38:12.239Z,97126.90
2023-06-15T12:40:41.644Z,97122.52
2023-06-15T12:43:10.643Z,97125.42
2023-06-15T12:45:39.170Z,97124.77
2023-06-15T12:48:08.469Z,97123.11
2023-06-15T12:50:37.140Z,97120.05
2023-06-15T12:53:06.521Z,97121.40
2023-06-15T12:55:35.191Z,97113.69
2023-06-15T12:58:04.845Z,97115.98
2023-06-15T13:00:34.695Z,97113.79
2023-06-15T13:03:07.543Z,97112.11
2023-06-15T13:05:37.631Z,97106.67
2023-06-15T13:08:07.049Z,97106.98
2023-06-15T13:10:36.152Z,97107.09
2023-06-15T13:13:04.651Z,97107.73
2023-06-15T13:15:33.800Z,97107.32
2023-06-15T13:18:03.009Z,97105.59
2023-06-15T13:20:31.885Z,97099.98
2023-06-15T13:23:01.335Z,97104.40
2023-06-15T13:25:29.850Z,97099.67
2023-06-15T13:27:58.416Z,97098.14
2023-06-15T13:30:26.947Z,97096.46
2023-06-15T13:32:55.575Z,97090.06
2023-06-15T13:35:24.146Z,97086.88
2023-06-15T13:37:52.916Z,97080.11
2023-06-15T13:40:21.765Z,97076.02
2023-06-15T13:42:51.244Z,97075.80
2023-06-15T13:45:20.991Z,97075.04
2023-06-15T13:47:50.423Z,97074.80
2023-06-15T13:50:20.158Z,97075.33
2023-06-15T13:52:50.093Z,97073.79
2023-06-15T13:55:19.291Z,97077.00
2023-06-15T13:57:48.111Z,97073.41
2023-06-15T14:00:18.410Z,97073.48
2023-06-15T14:02:48.556Z,97070.53
2023-06-15T14:05:17.787Z,97071.52
2023-06-15T14:07:47.778Z,97069.54
2023-06-15T14:10:16.878Z,97065.99
2023-06-15T14:12:46.577Z,97064.26
2023-06-15T14:15:16.988Z,97059.37
2023-06-15T14:17:46.644Z,97058.50
2023-06-15T14:20:15.968Z,97056.27
2023-06-15T14:22:44.668Z,97053.48
2023-06-15T14:25:15.293Z,97053.69
2023-06-15T14:27:49.010Z,97053.70
2023-06-15T14:30:18.223Z,97055.23
2023-06-15T14:32:47.420Z,97052.79
2023-06-15T14:35:16.160Z,97058.36
2023-06-15T14:37:44.693Z,97058.48
2023-06-15T14:40:13.262Z,97053.80
2023-06-15T14:42:48.920Z,97055.31
2023-06-15T14:45:17.861Z,97055.88
2023-06-15T14:47:49.838Z,97055.69
2023-06-15T14:50:19.194Z,97056.73
2023-06-15T14:52:48.035Z,97058.93
2023-06-15T14:55:16.979Z,97059.80
2023-06-15T14:57:46.071Z,97056.54
2023-06-15T15:00:15.425Z,97051.11
2023-06-15T15:02:44.376Z,97057.73
2023-06-15T15:05:13.036Z,97057.46
2023-06-15T15:07:42.149Z,97053.65
2023-06-15T15:10:11.003Z,97052.02
2023-06-15T15:12:39.587Z,97047.81
2023-06-15T15:15:08.565Z,97049.68
2023-06-15T15:17:37.289Z,97050.42
2023-06-15T15:20:06.683Z,97052.17
2023-06-15T15:22:35.316Z,97048.85
2023-06-15T15:25:03.997Z,97044.83
2023-06-15T15:27:32.719Z,97047.60
2023-06-15T15:30:01.128Z,97046.49
2023-06-15T15:32:29.971Z,97047.46
2023-06-15T15:34:58.892Z,97045.26
2023-06-15T15:37:27.545Z,97047.13
2023-06-15T15:39:56.031Z,97050.95
2023-06-15T15:42:24.667Z,97053.11
2023-06-15T15:44:53.812Z,97050.94
2023-06-15T15:47:22.580Z,97052.09
2023-06-15T15:49:51.422Z,97055.00
2023-06-15T15:52:20.507Z,97055.79
2023-06-15T15:54:49.300Z,97054.14
2023-06-15T15:57:18.515Z,97060.27
2023-06-15T15:59:47.391Z,97056.36
2023-06-15T16:02:15.877Z,97053.36
2023-06-15T16:04:44.672Z,97054.45
2023-06-15T16:07:13.556Z,97052.67
2023-06-15T16:09:42.036Z,97049.28
2023-06-15T16:12:10.936Z,97050.42
2023-06-15T16:14:39.721Z,97046.22
2023-06-15T16:17:08.209Z,97048.58
2023-06-15T16:19:37.698Z,97049.98
2023-06-15T16:22:06.593Z,97051.89
2023-06-15T16:24:35.213Z,97050.70
2023-06-15T16:27:04.161Z,97053.89
2023-06-15T16:29:32.864Z,97051.09
2023-06-15T16:32:02.459Z,97050.02
2023-06-15T16:34:30.937Z,97050.56
2023-06-15T16:36:59.624Z,97053.48
2023-06-15T16:39:43.670Z,97051.19
2023-06-15T16:42:12.794Z,97053.39
2023-06-15T16:44:42.181Z,97057.13
2023-06-15T16:47:10.912Z,97056.33
2023-06-15T16:49:49.688Z,97059.77
2023-06-15T16:52:19.297Z,97058.46
2023-06-15T16:54:49.068Z,97060.33
2023-06-15T16:57:18.691Z,97062.41
2023-06-15T16:59:48.245Z,97063.30
2023-06-15T17:02:17.929Z,97060.77
2023-06-15T17:04:47.054Z,97062.68
2023-06-15T17:07:17.183Z,97062.18
2023-06-15T17:09:47.026Z,97064.08
2023-06-15T17:12:15.825Z,97064.15
2023-06-15T17:14:44.806Z,97065.39
2023-06-15T17:17:13.613Z,97065.23
2023-06-15T17:19:42.099Z,97059.34
2023-06-15T17:22:11.701Z,97061.39
2023-06-15T17:24:40.538Z,97060.18
2023-06-15T17:27:09.709Z,97063.30
2023-06-15T17:29:38.274Z,97064.66
2023-06-15T17:32:08.432Z,97068.92
2023-06-15T17:34:37.990Z,97067.89
2023-06-15T17:37:06.681Z,97069.52
2023-06-15T17:39:35.464Z,97071.10
2023-06-15T17:42:04.400Z,97078.49
2023-06-15T17:44:33.050Z,97086.69
2023-06-15T17:47:01.643Z,97085.21
2023-06-15T17:49:30.524Z,97085.71
2023-06-15T17:51:59.806Z,97085.64
2023-06-15T17:54:28.383Z,97082.59
2023-06-15T17:56:57.089Z,97084.15
2023-06-15T17:59:25.808Z,97080.45
2023-06-15T18:01:54.359Z,97069.98
2023-06-15T18:04:23.044Z,97067.48
2023-06-15T18:06:51.737Z,97065.21
2023-06-15T18:09:21.140Z,97064.56
2023-06-15T18:11:49.830Z,97058.86
2023-06-15T18:14:18.701Z,97061.66
2023-06-15T18:16:47.571Z,97061.66
2023-06-15T18:19:16.182Z,97065.00
2023-06-15T18:21:45.178Z,97065.69
2023-06-15T18:24:14.235Z,97066.54
2023-06-15T18:26:48.253Z,97069.20
2023-06-15T18:29:16.764Z,97066.16
2023-06-15T18:31:45.855Z,97070.10
2023-06-15T18:34:17.005Z,97070.05
2023-06-15T18:36:45.603Z,97069.48
2023-06-15T18:39:17.546Z,97070.52
2023-06-15T18:41:46.455Z,97070.79
2023-06-15T18:44:15.217Z,97070.09
2023-06-15T18:46:43.703Z,97073.67
2023-06-15T18:49:14.754Z,97072.35
2023-06-15T18:51:43.226Z,97073.81
2023-06-15T18:54:12.113Z,97067.22
2023-06-15T18:56:40.904Z,97071.16
2023-06-15T18:59:09.470Z,97067.10
2023-06-15T19:01:37.886Z,97067.20
2023-06-15T19:04:06.651Z,97067.92
2023-06-15T19:06:35.447Z,97070.41
2023-06-15T19:09:04.224Z,97070.81
2023-06-15T19:11:32.710Z,97070.57
2023-06-15T19:14:02.678Z,97068.79
2023-06-15T19:16:34.714Z,97068.82
2023-06-15T19:19:03.445Z,97064.95
2023-06-15T19:21:31.996Z,97067.90
2023-06-15T19:24:00.937Z,97068.64
2023-06-15T19:26:29.636Z,97066.60
2023-06-15T19:28:58.219Z,97062.86
2023-06-15T19:31:27.209Z,97063.66
2023-06-15T19:33:55.593Z,97061.11
2023-06-15T19:36:24.654Z,97064.62
2023-06-15T19:39:02.575Z,97062.59
2023-06-15T19:41:32.398Z,97065.91
2023-06-15T19:44:01.183Z,97063.74
2023-06-15T19:46:29.891Z,97063.45
2023-06-15T19:48:58.659Z,97067.20
2023-06-15T19:51:27.144Z,97069.73
2023-06-15T19:53:55.848Z,97069.02
2023-06-15T19:56:24.539Z,97064.95
2023-06-15T19:58:53.719Z,97066.40
2023-06-15T20:01:22.523Z,97063.10
2023-06-15T20:03:52.913Z,97066.95
2023-06-15T20:06:22.945Z,97058.86
2023-06-15T20:08:51.934Z,97055.68
2023-06-15T20:11:21.440Z,97053.30
2023-06-15T20:13:50.033Z,97053.09
2023-06-15T20:16:19.091Z,97048.50
2023-06-15T20:18:49.108Z,97045.61
2023-06-15T20:21:18.379Z,97045.11
2023-06-15T20:23:47.039Z,97042.48
2023-06-15T20:26:17.427Z,97047.17
2023-06-15T20:28:46.551Z,97048.34
2023-06-15T20:31:15.107Z,97047.71
2023-06-15T20:33:45.858Z,97050.59
2023-06-15T20:36:15.241Z,97051.10
2023-06-15T20:38:44.415Z,97053.10
2023-06-15T20:41:13.475Z,97052.33
2023-06-15T20:43:42.059Z,97051.61
2023-06-15T20:46:11.314Z,97051.84
2023-06-15T20:48:39.927Z,97046.13
2023-06-15T20:51:08.639Z,97043.95
2023-06-15T20:53:37.648Z,97043.45
2023-06-15T20:56:07.148Z,97040.94
2023-06-15T20:58:36.898Z,97035.63
2023-06-15T21:01:06.557Z,97031.63
2023-06-15T21:03:36.272Z,97031.17
2023-06-15T21:06:05.527Z,97035.70
2023-06-15T21:08:34.709Z,97037.61
2023-06-15T21:11:04.213Z,97039.98
2023-06-15T21:13:35.436Z,97037.64
2023-06-15T21:16:06.872Z,97036.33
2023-06-15T21:18:36.617Z,97033.77
2023-06-15T21:21:06.767Z,97036.94
2023-06-15T21:23:35.853Z,97033.27
2023-06-15T21:26:05.240Z,97029.09
2023-06-15T21:28:35.340Z,97028.24
2023-06-15T21:31:04.784Z,97031.58
2023-06-15T21:33:33.573Z,97029.08
2023-06-15T21:36:02.690Z,97024.98
2023-06-15T21:38:31.449Z,97025.85
2023-06-15T21:41:02.020Z,97027.41
2023-06-15T21:43:31.486Z,97021.70
2023-06-15T21:46:01.228Z,97030.84
2023-06-15T21:48:30.239Z,97031.20
2023-06-15T21:50:58.974Z,97037.02
2023-06-15T21:53:27.860Z,97037.23
2023-06-15T21:55:57.069Z,97036.35
2023-06-15T21:58:25.938Z,97033.70
2023-06-15T22:00:54.611Z,97039.52
2023-06-15T22:03:23.758Z,97045.27
2023-06-15T22:05:53.130Z,97049.38
2023-06-15T22:08:22.058Z,97051.74
2023-06-15T22:10:50.995Z,97048.19
2023-06-15T22:13:20.050Z,97046.24
2023-06-15T22:15:49.433Z,97041.76
2023-06-15T22:18:18.520Z,97034.23
2023-06-15T22:20:49.240Z,97032.54
2023-06-15T22:23:21.836Z,97030.08
2023-06-15T22:25:56.229Z,97020.17
2023-06-15T22:28:26.562Z,97010.57
2023-06-15T22:30:55.621Z,97011.75
2023-06-15T22:33:25.074Z,97007.85
2023-06-15T22:35:54.991Z,97006.75
2023-06-15T22:38:23.899Z,97007.02
2023-06-15T22:40:53.432Z,97006.60
2023-06-15T22:43:22.596Z,97006.60
2023-06-15T22:45:52.068Z,97008.38
2023-06-15T22:48:24.620Z,97008.64
2023-06-15T22:50:57.678Z,96998.45
2023-06-15T22:53:27.843Z,96993.02
2023-06-15T22:55:57.476Z,96993.17
2023-06-15T22:58:27.007Z,96988.20
2023-06-15T23:00:56.966Z,96986.84
2023-06-15T23:03:26.840Z,96984.12
2023-06-15T23:05:57.849Z,96984.71
2023-06-15T23:08:32.791Z,96984.38
2023-06-15T23:11:03.122Z,96981.19
2023-06-15T23:13:33.026Z,96982.11
2023-06-15T23:16:03.178Z,96983.50
2023-06-15T23:18:37.525Z,96985.09
2023-06-15T23:21:07.616Z,96985.23
2023-06-15T23:23:38.858Z,96984.86
2023-06-15T23:26:10.293Z,96989.94
2023-06-15T23:28:41.304Z,96984.81
2023-06-15T23:31:10.672Z,96983.10
2023-06-15T23:33:41.344Z,96981.95
2023-06-15T23:36:15.803Z,96981.80
2023-06-15T23:38:45.606Z,96978.20
2023-06-15T23:41:16.389Z,96974.53
2023-06-15T23:43:45.993Z,96971.20
2023-06-15T23:46:15.967Z,96964.30
2023-06-15T23:48:47.875Z,96963.58
2023-06-15T23:51:19.101Z,96962.67
2023-06-15T23:53:48.622Z,96965.06
2023-06-15T23:56:17.258Z,96957.58
2023-06-15T23:58:46.466Z,96956.00
